createdAt,value
2022-08-25T00:00:14.659Z,14.50
2022-08-25T00:02:41.761Z,14.50
2022-08-25T00:05:26.032Z,14.50
2022-08-25T00:07:54.885Z,14.40
2022-08-25T00:10:23.994Z,14.50
2022-08-25T00:12:52.445Z,14.50
2022-08-25T00:15:21.294Z,14.50
2022-08-25T00:17:49.505Z,14.50
2022-08-25T00:20:17.682Z,14.50
2022-08-25T00:22:45.378Z,14.50
2022-08-25T00:25:13.230Z,14.50
2022-08-25T00:27:41.066Z,14.40
2022-08-25T00:30:10.297Z,14.50
2022-08-25T00:32:41.301Z,14.50
2022-08-25T00:35:08.390Z,14.40
2022-08-25T00:37:56.575Z,14.40
2022-08-25T00:40:24.743Z,14.40
2022-08-25T00:42:51.782Z,14.40
2022-08-25T00:45:19.414Z,14.40
2022-08-25T00:47:46.568Z,14.40
2022-08-25T00:50:13.654Z,14.40
2022-08-25T00:52:46.270Z,14.40
2022-08-25T00:55:33.473Z,14.40
2022-08-25T00:58:25.756Z,14.40
2022-08-25T01:00:58.354Z,14.40
2022-08-25T01:03:45.302Z,14.40
2022-08-25T01:06:36.341Z,14.40
2022-08-25T01:09:07.285Z,14.40
2022-08-25T01:11:35.307Z,14.30
2022-08-25T01:14:25.391Z,14.30
2022-08-25T01:17:14.672Z,14.30
2022-08-25T01:19:42.358Z,14.30
2022-08-25T01:22:29.377Z,14.30
2022-08-25T01:25:38.038Z,14.40
2022-08-25T01:28:27.663Z,14.40
2022-08-25T01:31:24.151Z,14.40
2022-08-25T01:34:13.402Z,14.40
2022-08-25T01:37:02.527Z,14.30
2022-08-25T01:39:54.164Z,14.40
2022-08-25T01:42:58.996Z,14.30
2022-08-25T01:45:48.831Z,14.30
2022-08-25T01:48:35.754Z,14.20
2022-08-25T01:51:25.940Z,14.20
2022-08-25T01:54:11.853Z,14.10
2022-08-25T01:56:41.450Z,14.20
2022-08-25T01:59:09.650Z,14.10
2022-08-25T02:01:37.328Z,14.00
2022-08-25T02:04:05.397Z,14.00
2022-08-25T02:06:34.964Z,14.00
2022-08-25T02:09:07.259Z,14.00
2022-08-25T02:11:36.266Z,14.00
2022-08-25T02:14:03.405Z,13.90
2022-08-25T02:16:35.080Z,13.90
2022-08-25T02:19:04.349Z,13.80
2022-08-25T02:21:32.757Z,13.80
2022-08-25T02:23:59.974Z,13.70
2022-08-25T02:26:29.177Z,13.60
2022-08-25T02:28:57.121Z,13.60
2022-08-25T02:31:25.930Z,13.50
2022-08-25T02:33:55.218Z,13.40
2022-08-25T02:36:24.610Z,13.40
2022-08-25T02:38:51.690Z,13.30
2022-08-25T02:41:27.826Z,13.30
2022-08-25T02:44:00.198Z,13.30
2022-08-25T02:46:27.690Z,13.20
2022-08-25T02:48:55.328Z,13.20
2022-08-25T02:51:25.442Z,13.20
2022-08-25T02:53:53.366Z,13.30
2022-08-25T02:56:21.745Z,13.30
2022-08-25T02:58:49.737Z,13.30
2022-08-25T03:01:17.412Z,13.30
2022-08-25T03:03:46.676Z,13.30
2022-08-25T03:06:15.997Z,13.20
2022-08-25T03:08:43.913Z,13.20
2022-08-25T03:11:11.504Z,13.10
2022-08-25T03:13:40.069Z,13.10
2022-08-25T03:16:11.175Z,13.00
2022-08-25T03:18:42.235Z,13.00
2022-08-25T03:21:11.543Z,12.90
2022-08-25T03:23:41.312Z,12.90
2022-08-25T03:26:28.119Z,12.90
2022-08-25T03:28:55.774Z,12.90
2022-08-25T03:31:26.182Z,12.90
2022-08-25T03:33:55.172Z,12.90
2022-08-25T03:36:23.706Z,12.80
2022-08-25T03:38:52.713Z,12.80
2022-08-25T03:41:27.022Z,12.80
2022-08-25T03:43:56.370Z,12.80
2022-08-25T03:46:38.595Z,12.80
2022-08-25T03:49:09.648Z,12.80
2022-08-25T03:51:57.470Z,12.80
2022-08-25T03:54:26.390Z,12.80
2022-08-25T03:56:53.360Z,12.80
2022-08-25T03:59:21.524Z,12.90
2022-08-25T04:01:54.808Z,12.80
2022-08-25T04:04:24.766Z,12.90
2022-08-25T04:06:53.110Z,12.80
2022-08-25T04:09:21.319Z,12.80
2022-08-25T04:12:08.528Z,12.80
2022-08-25T04:14:56.701Z,12.80
2022-08-25T04:17:44.857Z,12.80
2022-08-25T04:20:32.064Z,12.90
2022-08-25T04:23:21.014Z,12.90
2022-08-25T04:26:15.021Z,12.90
2022-08-25T04:29:05.031Z,12.90
2022-08-25T04:31:53.747Z,13.00
2022-08-25T04:34:41.911Z,13.00
2022-08-25T04:37:28.878Z,13.10
2022-08-25T04:40:16.585Z,13.10
2022-08-25T04:43:03.562Z,13.20
2022-08-25T04:45:51.167Z,13.20
2022-08-25T04:48:40.063Z,13.30
2022-08-25T04:51:40.759Z,13.40
2022-08-25T04:54:28.426Z,13.40
2022-08-25T04:57:14.001Z,13.40
2022-08-25T04:59:41.685Z,13.50
2022-08-25T05:02:10.359Z,13.50
2022-08-25T05:04:37.546Z,13.60
2022-08-25T05:07:06.253Z,13.60
2022-08-25T05:09:35.357Z,13.70
2022-08-25T05:12:04.774Z,13.70
2022-08-25T05:14:33.257Z,13.80
2022-08-25T05:17:03.662Z,13.80
2022-08-25T05:19:32.020Z,13.80
2022-08-25T05:22:00.374Z,13.90
2022-08-25T05:24:30.273Z,13.90
2022-08-25T05:26:58.597Z,14.00
2022-08-25T05:29:27.389Z,14.00
2022-08-25T05:31:55.907Z,14.10
2022-08-25T05:34:24.877Z,14.10
2022-08-25T05:36:53.257Z,14.10
2022-08-25T05:39:20.814Z,14.20
2022-08-25T05:41:49.342Z,14.20
2022-08-25T05:44:20.861Z,14.30
2022-08-25T05:46:49.359Z,14.30
2022-08-25T05:49:17.122Z,14.40
2022-08-25T05:51:47.189Z,14.40
2022-08-25T05:54:14.890Z,14.50
2022-08-25T05:56:45.519Z,14.50
2022-08-25T05:59:13.633Z,14.60
2022-08-25T06:02:01.156Z,14.60
2022-08-25T06:04:28.369Z,14.70
2022-08-25T06:06:56.669Z,14.70
2022-08-25T06:09:24.539Z,14.80
2022-08-25T06:11:55.183Z,14.90
2022-08-25T06:14:24.391Z,14.90
2022-08-25T06:16:53.236Z,15.00
2022-08-25T06:19:23.624Z,15.20
2022-08-25T06:21:55.474Z,15.20
2022-08-25T06:24:25.562Z,15.30
2022-08-25T06:26:55.405Z,15.40
2022-08-25T06:29:24.330Z,15.40
2022-08-25T06:31:52.948Z,15.50
2022-08-25T06:34:23.992Z,15.60
2022-08-25T06:36:53.953Z,15.60
2022-08-25T06:39:21.810Z,15.70
2022-08-25T06:41:56.983Z,15.80
2022-08-25T06:44:27.555Z,15.80
2022-08-25T06:46:56.423Z,15.90
2022-08-25T06:49:28.726Z,16.10
2022-08-25T06:51:58.417Z,16.20
2022-08-25T06:54:27.853Z,16.40
2022-08-25T06:56:55.704Z,16.50
2022-08-25T06:59:32.013Z,16.70
2022-08-25T07:02:03.108Z,16.90
2022-08-25T07:04:33.330Z,17.20
2022-08-25T07:07:04.161Z,17.40
2022-08-25T07:09:35.257Z,17.60
2022-08-25T07:12:06.835Z,17.90
2022-08-25T07:14:36.421Z,18.20
2022-08-25T07:17:10.515Z,18.40
2022-08-25T07:19:41.170Z,18.60
2022-08-25T07:22:09.563Z,18.70
2022-08-25T07:24:37.841Z,18.80
2022-08-25T07:27:05.781Z,18.90
2022-08-25T07:29:36.898Z,18.90
2022-08-25T07:32:10.896Z,18.90
2022-08-25T07:34:57.434Z,18.90
2022-08-25T07:37:48.145Z,18.80
2022-08-25T07:40:21.455Z,18.80
2022-08-25T07:42:50.845Z,18.80
2022-08-25T07:45:20.638Z,18.70
2022-08-25T07:47:51.596Z,18.70
2022-08-25T07:50:19.650Z,18.70
2022-08-25T07:52:53.902Z,18.80
2022-08-25T07:55:26.101Z,18.80
2022-08-25T07:57:57.180Z,18.80
2022-08-25T08:00:28.401Z,19.00
2022-08-25T08:02:57.843Z,19.00
2022-08-25T08:05:27.161Z,19.10
2022-08-25T08:07:55.830Z,19.10
2022-08-25T08:13:17.955Z,19.20
2022-08-25T08:15:47.030Z,19.40
2022-08-25T08:18:16.849Z,19.50
2022-08-25T08:20:48.691Z,19.60
2022-08-25T08:23:17.505Z,19.80
2022-08-25T08:25:46.449Z,19.90
2022-08-25T08:28:14.669Z,19.90
2022-08-25T08:30:52.734Z,19.90
2022-08-25T08:33:22.825Z,19.90
2022-08-25T08:36:05.440Z,20.00
2022-08-25T08:38:36.249Z,20.10
2022-08-25T08:41:33.875Z,20.10
2022-08-25T08:44:31.880Z,20.20
2022-08-25T08:47:08.963Z,20.40
2022-08-25T08:49:53.274Z,20.50
2022-08-25T08:52:29.666Z,20.60
2022-08-25T08:55:06.451Z,20.80
2022-08-25T08:57:41.437Z,21.10
2022-08-25T09:00:11.031Z,21.30
2022-08-25T09:03:06.750Z,21.50
2022-08-25T09:05:50.266Z,21.80
2022-08-25T09:08:20.281Z,21.90
2022-08-25T09:10:58.273Z,22.30
2022-08-25T09:13:49.358Z,22.60
2022-08-25T09:16:57.004Z,22.50
2022-08-25T09:19:37.403Z,22.80
2022-08-25T09:22:36.254Z,23.00
2022-08-25T09:25:39.787Z,23.20
2022-08-25T09:28:40.384Z,23.40
2022-08-25T09:31:19.052Z,23.40
2022-08-25T09:33:47.009Z,23.50
2022-08-25T09:36:15.669Z,23.60
2022-08-25T09:38:43.567Z,23.50
2022-08-25T09:41:17.305Z,23.40
2022-08-25T09:43:54.170Z,23.50
2022-08-25T09:46:28.505Z,23.80
2022-08-25T09:48:59.447Z,23.80
2022-08-25T09:51:29.377Z,23.80
2022-08-25T09:54:14.038Z,24.10
2022-08-25T09:56:56.898Z,24.10
2022-08-25T09:59:35.058Z,24.40
2022-08-25T10:02:25.876Z,24.50
2022-08-25T10:04:55.656Z,24.70
2022-08-25T10:07:37.568Z,24.90
2022-08-25T10:10:21.796Z,25.10
2022-08-25T10:12:51.596Z,25.20
2022-08-25T10:15:29.998Z,25.20
2022-08-25T10:18:27.315Z,25.30
2022-08-25T10:21:09.537Z,25.30
2022-08-25T10:23:44.337Z,25.30
2022-08-25T10:26:42.180Z,25.40
2022-08-25T10:29:27.553Z,25.30
2022-08-25T10:32:02.885Z,25.20
2022-08-25T10:34:53.418Z,25.20
2022-08-25T10:37:47.362Z,25.10
2022-08-25T10:40:41.242Z,24.70
2022-08-25T10:43:10.055Z,24.80
2022-08-25T10:45:51.038Z,24.70
2022-08-25T10:48:41.800Z,24.70
2022-08-25T10:51:34.437Z,24.70
2022-08-25T10:54:16.096Z,24.70
2022-08-25T10:56:53.016Z,24.70
2022-08-25T10:59:42.125Z,24.70
2022-08-25T11:02:31.933Z,24.70
2022-08-25T11:05:06.855Z,24.80
2022-08-25T11:07:40.924Z,24.90
2022-08-25T11:10:22.653Z,25.00
2022-08-25T11:12:59.713Z,25.00
2022-08-25T11:15:41.482Z,25.00
2022-08-25T11:18:17.281Z,25.10
2022-08-25T11:21:16.917Z,25.30
2022-08-25T11:24:15.126Z,25.40
2022-08-25T11:26:51.620Z,25.60
2022-08-25T11:29:24.622Z,25.50
2022-08-25T11:31:54.423Z,25.70
2022-08-25T11:34:23.412Z,25.80
2022-08-25T11:37:01.190Z,26.10
2022-08-25T11:39:37.934Z,26.20
2022-08-25T11:42:25.868Z,26.30
2022-08-25T11:45:57.639Z,26.50
2022-08-25T11:48:40.990Z,26.60
2022-08-25T11:51:11.850Z,26.70
2022-08-25T11:53:42.834Z,26.80
2022-08-25T11:56:37.966Z,26.90
2022-08-25T11:59:10.002Z,27.00
2022-08-25T12:01:43.231Z,27.20
2022-08-25T12:04:44.007Z,27.30
2022-08-25T12:07:20.229Z,27.30
2022-08-25T12:09:55.860Z,27.40
2022-08-25T12:12:41.777Z,27.50
2022-08-25T12:15:41.953Z,27.60
2022-08-25T12:18:18.876Z,27.60
2022-08-25T12:20:55.187Z,27.70
2022-08-25T12:23:29.250Z,27.90
2022-08-25T12:26:36.606Z,28.00
2022-08-25T12:29:07.328Z,27.90
2022-08-25T12:32:04.674Z,27.90
2022-08-25T12:34:53.599Z,28.00
2022-08-25T12:37:24.341Z,28.20
2022-08-25T12:39:52.077Z,28.30
2022-08-25T12:42:32.795Z,28.40
2022-08-25T12:45:30.450Z,28.50
2022-08-25T12:48:27.629Z,28.50
2022-08-25T12:51:10.106Z,28.50
2022-08-25T12:53:53.627Z,28.50
2022-08-25T12:56:37.451Z,28.50
2022-08-25T12:59:37.816Z,28.50
2022-08-25T13:02:40.231Z,28.60
2022-08-25T13:12:14.318Z,28.90
2022-08-25T13:14:45.143Z,28.90
2022-08-25T13:17:29.216Z,28.80
2022-08-25T13:20:19.903Z,29.00
2022-08-25T13:22:55.376Z,28.40
2022-08-25T13:25:32.736Z,28.40
2022-08-25T13:28:05.255Z,28.40
2022-08-25T13:30:39.176Z,28.40
2022-08-25T13:33:23.899Z,28.40
2022-08-25T13:36:15.429Z,28.30
2022-08-25T13:38:46.675Z,28.40
2022-08-25T13:41:29.288Z,28.40
2022-08-25T13:43:59.030Z,28.30
2022-08-25T13:46:28.954Z,28.40
2022-08-25T13:49:09.350Z,28.30
2022-08-25T13:51:39.617Z,28.30
2022-08-25T13:54:09.494Z,27.90
2022-08-25T13:56:42.177Z,27.70
2022-08-25T13:59:26.872Z,27.00
2022-08-25T14:01:56.299Z,26.50
2022-08-25T14:04:51.492Z,26.30
2022-08-25T14:07:20.885Z,26.30
2022-08-25T14:09:51.742Z,26.80
2022-08-25T14:12:35.806Z,26.90
2022-08-25T14:15:22.047Z,27.00
2022-08-25T14:18:05.520Z,26.90
2022-08-25T14:20:36.159Z,26.90
2022-08-25T14:23:12.895Z,26.90
2022-08-25T14:25:44.584Z,26.90
2022-08-25T14:28:15.081Z,27.00
2022-08-25T14:30:55.922Z,27.00
2022-08-25T14:33:30.052Z,27.00
2022-08-25T14:36:00.261Z,27.10
2022-08-25T14:38:28.187Z,27.20
2022-08-25T14:40:59.253Z,27.20
2022-08-25T14:43:31.344Z,26.90
2022-08-25T14:46:27.117Z,26.90
2022-08-25T14:49:01.422Z,26.80
2022-08-25T14:51:33.041Z,26.30
2022-08-25T14:54:04.137Z,26.20
2022-08-25T14:56:33.557Z,26.00
2022-08-25T14:59:04.892Z,25.60
2022-08-25T15:01:33.741Z,25.50
2022-08-25T15:04:10.783Z,25.50
2022-08-25T15:06:43.415Z,25.40
2022-08-25T15:09:16.540Z,25.50
2022-08-25T15:11:50.939Z,25.50
2022-08-25T15:14:29.150Z,25.50
2022-08-25T15:17:02.715Z,25.50
2022-08-25T15:19:30.789Z,25.60
2022-08-25T15:21:59.731Z,25.50
2022-08-25T15:24:28.877Z,25.20
2022-08-25T15:26:59.627Z,25.10
2022-08-25T15:29:30.172Z,25.30
2022-08-25T15:32:00.181Z,25.40
2022-08-25T15:34:30.652Z,25.30
2022-08-25T15:37:16.384Z,25.30
2022-08-25T15:39:45.653Z,25.20
2022-08-25T15:42:13.975Z,25.00
2022-08-25T15:44:53.072Z,25.00
2022-08-25T15:47:21.331Z,25.00
2022-08-25T15:49:48.984Z,25.00
2022-08-25T15:52:17.458Z,24.90
2022-08-25T15:54:46.271Z,24.80
2022-08-25T15:57:18.021Z,24.70
2022-08-25T15:59:53.466Z,24.60
2022-08-25T16:02:21.878Z,24.60
2022-08-25T16:04:48.957Z,24.50
2022-08-25T16:07:16.546Z,24.40
2022-08-25T16:09:47.298Z,24.30
2022-08-25T16:12:15.694Z,24.20
2022-08-25T16:14:45.338Z,24.10
2022-08-25T16:17:14.518Z,23.90
2022-08-25T16:19:43.648Z,23.80
2022-08-25T16:22:14.201Z,23.70
2022-08-25T16:24:45.060Z,23.60
2022-08-25T16:27:15.100Z,23.60
2022-08-25T16:29:44.229Z,23.40
2022-08-25T16:32:14.433Z,23.30
2022-08-25T16:34:44.308Z,23.20
2022-08-25T16:37:14.232Z,23.10
2022-08-25T16:39:44.130Z,23.00
2022-08-25T16:42:13.224Z,22.90
2022-08-25T16:44:42.538Z,22.80
2022-08-25T16:47:14.360Z,22.70
2022-08-25T16:49:46.757Z,22.60
2022-08-25T16:52:34.481Z,22.50
2022-08-25T16:55:15.264Z,22.40
2022-08-25T16:57:49.870Z,22.30
2022-08-25T17:00:23.414Z,22.20
2022-08-25T17:02:58.357Z,22.00
2022-08-25T17:05:29.761Z,22.00
2022-08-25T17:08:20.773Z,21.90
2022-08-25T17:10:49.108Z,21.80
2022-08-25T17:13:17.981Z,21.70
2022-08-25T17:15:49.112Z,21.60
2022-08-25T17:18:21.630Z,21.60
2022-08-25T17:21:05.285Z,21.50
2022-08-25T17:23:34.846Z,21.40
2022-08-25T17:26:05.546Z,21.30
2022-08-25T17:28:33.863Z,21.20
2022-08-25T17:31:02.254Z,21.10
2022-08-25T17:33:30.860Z,21.00
2022-08-25T17:36:00.420Z,21.00
2022-08-25T17:38:30.202Z,20.80
2022-08-25T17:41:09.178Z,20.70
2022-08-25T17:43:41.197Z,20.70
2022-08-25T17:46:11.750Z,20.60
2022-08-25T17:48:43.746Z,20.60
2022-08-25T17:51:11.985Z,20.50
2022-08-25T17:53:40.206Z,20.40
2022-08-25T17:56:15.742Z,20.30
2022-08-25T17:58:45.160Z,20.20
2022-08-25T18:01:32.349Z,20.10
2022-08-25T18:04:01.426Z,20.00
2022-08-25T18:06:30.297Z,20.00
2022-08-25T18:09:00.137Z,19.90
2022-08-25T18:11:30.185Z,19.80
2022-08-25T18:13:59.656Z,19.80
2022-08-25T18:16:28.915Z,19.70
2022-08-25T18:18:57.241Z,19.70
2022-08-25T18:21:25.397Z,19.60
2022-08-25T18:23:59.396Z,19.60
2022-08-25T18:26:26.990Z,19.50
2022-08-25T18:28:55.825Z,19.40
2022-08-25T18:31:25.460Z,19.40
2022-08-25T18:33:52.546Z,19.30
2022-08-25T18:36:21.087Z,19.40
2022-08-25T18:39:08.004Z,19.30
2022-08-25T18:41:40.112Z,19.20
2022-08-25T18:44:10.648Z,19.00
2022-08-25T18:46:40.233Z,19.00
2022-08-25T18:49:09.085Z,18.90
2022-08-25T18:51:38.986Z,18.80
2022-08-25T18:54:08.105Z,18.70
2022-08-25T18:56:53.299Z,18.60
2022-08-25T18:59:23.613Z,18.50
2022-08-25T19:01:53.926Z,18.50
2022-08-25T19:04:31.164Z,18.40
2022-08-25T19:07:01.939Z,18.40
2022-08-25T19:09:32.983Z,18.30
2022-08-25T19:12:03.189Z,18.30
2022-08-25T19:14:31.728Z,18.20
2022-08-25T19:16:59.510Z,18.10
2022-08-25T19:19:31.372Z,18.00
2022-08-25T19:21:59.577Z,18.00
2022-08-25T19:24:28.282Z,17.90
2022-08-25T19:26:56.973Z,18.00
2022-08-25T19:29:26.566Z,17.90
2022-08-25T19:32:01.204Z,17.90
2022-08-25T19:34:33.065Z,17.90
2022-08-25T19:37:04.461Z,17.80
2022-08-25T19:39:34.982Z,17.70
2022-08-25T19:42:03.435Z,17.70
2022-08-25T19:44:31.097Z,17.70
2022-08-25T19:46:58.805Z,17.50
2022-08-25T19:49:31.633Z,17.50
2022-08-25T19:52:05.177Z,17.50
2022-08-25T19:54:44.148Z,17.40
2022-08-25T19:57:27.990Z,17.30
2022-08-25T20:00:09.279Z,17.20
2022-08-25T20:02:37.766Z,17.20
2022-08-25T20:05:06.009Z,17.10
2022-08-25T20:07:33.976Z,17.10
2022-08-25T20:10:03.315Z,17.00
2022-08-25T20:12:31.826Z,17.00
2022-08-25T20:14:58.928Z,16.90
2022-08-25T20:17:28.583Z,16.90
2022-08-25T20:19:59.824Z,16.90
2022-08-25T20:22:29.215Z,16.80
2022-08-25T20:24:59.262Z,16.80
2022-08-25T20:27:35.901Z,16.80
2022-08-25T20:30:07.750Z,16.70
2022-08-25T20:32:36.868Z,16.70
2022-08-25T20:35:08.812Z,16.70
2022-08-25T20:37:36.826Z,16.70
2022-08-25T20:40:06.007Z,16.70
2022-08-25T20:42:33.729Z,16.70
2022-08-25T20:45:01.051Z,16.80
2022-08-25T20:47:28.634Z,16.70
2022-08-25T20:50:01.169Z,16.70
2022-08-25T20:52:32.226Z,16.70
2022-08-25T20:55:02.003Z,16.70
2022-08-25T20:57:29.633Z,16.60
2022-08-25T20:59:59.275Z,16.60
2022-08-25T21:02:29.719Z,16.60
2022-08-25T21:04:57.705Z,16.60
2022-08-25T21:07:24.754Z,16.60
2022-08-25T21:09:52.814Z,16.60
2022-08-25T21:12:20.418Z,16.50
2022-08-25T21:14:49.424Z,16.40
2022-08-25T21:17:19.245Z,16.40
2022-08-25T21:22:18.602Z,16.40
2022-08-25T21:24:46.036Z,16.40
2022-08-25T21:27:13.528Z,16.30
2022-08-25T21:29:44.707Z,16.30
2022-08-25T21:32:22.382Z,16.30
2022-08-25T21:34:54.703Z,16.30
2022-08-25T21:37:22.686Z,16.30
2022-08-25T21:39:52.127Z,16.30
2022-08-25T21:42:22.387Z,16.30
2022-08-25T21:44:50.274Z,16.20
2022-08-25T21:47:20.981Z,16.20
2022-08-25T21:49:49.094Z,16.20
2022-08-25T21:52:16.040Z,16.10
2022-08-25T21:54:45.112Z,16.10
2022-08-25T21:57:12.784Z,16.10
2022-08-25T21:59:41.495Z,16.10
2022-08-25T22:02:12.485Z,16.10
2022-08-25T22:04:42.108Z,16.00
2022-08-25T22:07:11.684Z,16.00
2022-08-25T22:09:40.066Z,15.90
2022-08-25T22:12:09.053Z,15.90
2022-08-25T22:14:37.595Z,15.90
2022-08-25T22:17:05.879Z,15.80
2022-08-25T22:19:36.670Z,15.80
2022-08-25T22:22:06.774Z,15.80
2022-08-25T22:24:34.477Z,15.80
2022-08-25T22:27:02.334Z,15.70
2022-08-25T22:29:31.158Z,15.70
2022-08-25T22:32:00.951Z,15.80
2022-08-25T22:34:34.421Z,15.70
2022-08-25T22:37:04.845Z,15.70
2022-08-25T22:39:34.411Z,15.70
2022-08-25T22:42:03.606Z,15.70
2022-08-25T22:44:32.073Z,15.60
2022-08-25T22:47:00.380Z,15.60
2022-08-25T22:49:29.389Z,15.60
2022-08-25T22:51:57.529Z,15.60
2022-08-25T22:54:25.673Z,15.60
2022-08-25T22:56:53.303Z,15.60
2022-08-25T22:59:20.526Z,15.60
2022-08-25T23:01:49.901Z,15.60
2022-08-25T23:04:19.075Z,15.50
2022-08-25T23:06:48.112Z,15.50
2022-08-25T23:09:15.383Z,15.50
2022-08-25T23:11:43.123Z,15.50
2022-08-25T23:14:11.269Z,15.60
2022-08-25T23:16:42.090Z,15.50
2022-08-25T23:19:13.940Z,15.40
2022-08-25T23:22:01.869Z,15.40
2022-08-25T23:24:31.047Z,15.40
2022-08-25T23:27:03.821Z,15.40
2022-08-25T23:29:32.245Z,15.50
2022-08-25T23:31:59.975Z,15.60
2022-08-25T23:34:28.495Z,15.60
2022-08-25T23:36:57.110Z,15.60
2022-08-25T23:39:24.767Z,15.70
2022-08-25T23:41:53.047Z,15.60
2022-08-25T23:44:23.267Z,15.60
2022-08-25T23:46:52.807Z,15.60
2022-08-25T23:49:21.955Z,15.70
2022-08-25T23:51:53.265Z,15.70
2022-08-25T23:54:21.418Z,15.60
2022-08-25T23:56:51.790Z,15.70
2022-08-25T23:59:24.047Z,15.60
